Star Life — 5BEH3 — position and weather

sailwx.info

Track history (hours):
 
Tides and Currents Weather Stations Pressure Air Temp Water Temp Dewpoint Dewpoint Depression Visibility Wind Speed Wind Dir Waves Ship Positions

Star Life

Last reported at 2018-May-20 11:49 UTC. Time now 2018-May-20 15:45 UTC.
Position N 35°22' E 139°51'.

Length 169 m; draft 5.7 m.

Type: Cargo ship. MMSI: 209257000.

Date/timePositionNaut miles runAvg speedWind from/ knotsBaromVisibWave heightAir tempDewpointWater temp
2018-May-20 11:49N 35°22' E 139°51'0 0.0
2018-May-20 11:25N 35°22' E 139°51'0 0.0
2018-May-20 07:31N 35°22' E 139°51'0 0.0
2018-May-20 07:25N 35°22' E 139°51'0 0.0
2018-May-20 06:55N 35°22' E 139°51'0 0.0
2018-May-20 04:37N 35°22' E 139°51'0 0.0
2018-May-20 04:07N 35°22' E 139°51'0 0.0
2018-May-20 03:31N 35°22' E 139°51'0 0.1
2018-May-20 03:25N 35°22' E 139°51'0 0.0
2018-May-20 02:49N 35°22' E 139°51'0 0.0
2018-May-20 02:25N 35°22' E 139°51'0 0.0
2018-May-19 23:58N 35°22' E 139°51'0 0.0
2018-May-19 19:58N 35°22' E 139°51'0 0.0
2018-May-19 06:44N 35°22' E 139°51'0 0.7
2018-May-19 06:26N 35°22' E 139°51'2 4.3
2018-May-19 06:00N 35°23' E 139°49'1 2.1
2018-May-19 05:25N 35°25' E 139°49'0 0.0
2018-May-19 04:55N 35°25' E 139°49'0 0.1
2018-May-19 04:25N 35°25' E 139°49'0 0.3
2018-May-19 04:00N 35°25' E 139°49'2 4.2
2018-May-19 03:30N 35°24' E 139°46'611.8
2018-May-19 03:00N 35°19' E 139°44'611.4
2018-May-19 02:30N 35°14' E 139°47'510.1
2018-May-19 02:00N 35°09' E 139°46'611.7
2018-May-19 01:30N 35°03' E 139°44'612.7
2018-May-19 01:00N 34°57' E 139°42'611.9
2018-May-19 00:30N 34°51' E 139°41'711.9
2018-May-18 23:57N 34°45' E 139°43'  
2018-May-15 21:47N 31°07' E 122°16'614.3
2018-May-15 21:23N 31°10' E 122°11'614.7
2018-May-15 20:59N 31°14' E 122°05'814.9
2018-May-15 20:28N 31°15' E 121°57'714.7
2018-May-15 19:58N 31°17' E 121°48'613.1
2018-May-15 19:28N 31°20' E 121°41'611.8
2018-May-15 18:59N 31°23' E 121°35'510.0
2018-May-15 18:30N 31°25' E 121°30'4 9.0
2018-May-15 18:00N 31°28' E 121°27'611.9
2018-May-15 17:30N 31°32' E 121°21'611.6
2018-May-15 17:00N 31°36' E 121°17'5 9.9
2018-May-15 16:30N 31°40' E 121°12'4 6.7
2018-May-15 15:58N 31°42' E 121°09'0 0.0
2018-May-15 15:25N 31°42' E 121°09'0 0.0
2018-May-15 14:55N 31°42' E 121°09'0 0.0
2018-May-15 13:19N 31°42' E 121°09'0 0.0
2018-May-15 11:52N 31°42' E 121°09'0 0.0
2018-May-15 08:55N 31°42' E 121°09'0 0.0
2018-May-15 08:25N 31°42' E 121°09'0 0.0
2018-May-15 07:25N 31°42' E 121°09'0 0.0
2018-May-15 05:55N 31°42' E 121°09'0 0.0
2018-May-15 05:25N 31°42' E 121°09'0 0.0
2018-May-15 04:07N 31°42' E 121°09'0 0.0
2018-May-15 04:01N 31°42' E 121°09'0 0.0
2018-May-15 03:31N 31°42' E 121°09'0 0.0
2018-May-15 02:37N 31°42' E 121°09'0 0.0
2018-May-15 02:22N 31°42' E 121°09'0 0.0
2018-May-15 01:37N 31°42' E 121°09'0 0.0
2018-May-15 01:25N 31°42' E 121°09'0 0.0
2018-May-15 00:49N 31°42' E 121°09'0 0.0
2018-May-15 00:28N 31°42' E 121°09'0 0.0
2018-May-14 23:55N 31°42' E 121°09'0 0.0
2018-May-14 23:07N 31°42' E 121°09'0 0.0
2018-May-14 22:37N 31°42' E 121°09'0 0.0
2018-May-14 22:19N 31°42' E 121°09'0 0.0
2018-May-14 21:55N 31°42' E 121°09'0 0.0
2018-May-14 21:25N 31°42' E 121°09'0 0.0
2018-May-14 19:49N 31°42' E 121°09'0 0.0
2018-May-14 19:19N 31°42' E 121°09'0 0.0
2018-May-14 18:55N 31°42' E 121°09'0 0.0
2018-May-14 18:31N 31°42' E 121°09'0 0.0
2018-May-14 17:43N 31°42' E 121°09'0 0.0
2018-May-14 17:28N 31°42' E 121°09'0 0.0
2018-May-14 17:01N 31°42' E 121°09'0 0.0
2018-May-14 16:25N 31°42' E 121°09'0 0.0
2018-May-14 14:37N 31°42' E 121°09'0 0.0
2018-May-14 14:13N 31°42' E 121°09'0 0.0
2018-May-14 13:49N 31°42' E 121°09'0 0.0
2018-May-14 13:13N 31°42' E 121°09'0 0.0
2018-May-14 12:43N 31°42' E 121°09'0 0.0
2018-May-14 11:49N 31°42' E 121°09'0 0.0
2018-May-14 10:43N 31°42' E 121°09'0 0.0
2018-May-14 10:07N 31°42' E 121°09'0 0.0
2018-May-14 09:49N 31°42' E 121°09'0 0.0
2018-May-14 09:13N 31°42' E 121°09'0 0.0
2018-May-14 08:49N 31°42' E 121°09'0 0.0
2018-May-14 08:25N 31°42' E 121°09'0 0.0
2018-May-14 07:55N 31°42' E 121°09'0 0.0
2018-May-14 07:25N 31°42' E 121°09'0 0.0
2018-May-14 06:49N 31°42' E 121°09'0 0.0
2018-May-14 06:25N 31°42' E 121°09'0 0.0
2018-May-14 05:13N 31°42' E 121°09'0 0.0
2018-May-14 05:01N 31°42' E 121°09'0 0.0
2018-May-14 03:25N 31°42' E 121°09'0 0.0
2018-May-14 01:49N 31°42' E 121°09'0 0.0
2018-May-14 01:19N 31°42' E 121°09'0 0.0
2018-May-13 22:55N 31°42' E 121°09'0 0.0
2018-May-13 21:43N 31°42' E 121°09'0 0.0
2018-May-13 21:25N 31°42' E 121°09'0 0.0
2018-May-13 20:43N 31°42' E 121°09'0 0.0
2018-May-13 15:19N 31°42' E 121°09'0 0.0
2018-May-13 15:01N 31°42' E 121°09'0 0.0
2018-May-13 14:31N 31°42' E 121°09'0 0.0
2018-May-13 09:01N 31°42' E 121°09'0 0.0
2018-May-13 06:37N 31°42' E 121°09'0 0.0
2018-May-13 06:19N 31°42' E 121°09'0 0.0
2018-May-13 05:31N 31°42' E 121°09'0 0.0
2018-May-13 04:31N 31°42' E 121°09'0 0.0
2018-May-13 04:25N 31°42' E 121°09'0 0.0
2018-May-13 03:49N 31°42' E 121°09'0 0.0
2018-May-13 03:13N 31°42' E 121°09'0 0.0
2018-May-13 02:49N 31°42' E 121°09'0 0.0
2018-May-13 02:25N 31°42' E 121°09'0 0.0
2018-May-13 00:43N 31°42' E 121°09'0 0.0
2018-May-13 00:19N 31°42' E 121°09'0 0.0
2018-May-12 21:49N 31°42' E 121°09'0 0.0
2018-May-12 20:13N 31°42' E 121°09'0 0.0
2018-May-12 19:55N 31°42' E 121°09'0 0.0
2018-May-12 19:01N 31°42' E 121°09'0 0.0
2018-May-12 18:49N 31°42' E 121°09'0 0.0
2018-May-12 18:31N 31°42' E 121°09'0 0.0
2018-May-12 17:46N 31°42' E 121°09'0 0.0
2018-May-12 17:22N 31°42' E 121°09'0 0.0
2018-May-12 16:01N 31°42' E 121°09'0 0.0
2018-May-12 15:40N 31°42' E 121°09'0 0.0
2018-May-12 15:25N 31°42' E 121°09'0 0.0
2018-May-12 14:55N 31°42' E 121°09'0 0.0
2018-May-12 14:25N 31°42' E 121°09'0 0.0
2018-May-12 13:01N 31°42' E 121°09'0 0.0
2018-May-12 11:43N 31°42' E 121°09'0 0.1
2018-May-12 11:25N 31°42' E 121°09'0 0.0
2018-May-12 10:01N 31°42' E 121°09'0 0.0
2018-May-12 09:49N 31°42' E 121°09'0 0.0
2018-May-12 09:31N 31°42' E 121°09'0 0.0
2018-May-12 07:07N 31°42' E 121°09'0 0.0
2018-May-12 05:55N 31°42' E 121°09'0 0.0
2018-May-12 05:13N 31°42' E 121°09'0 0.0
2018-May-12 04:49N 31°42' E 121°09'0 0.0
2018-May-12 04:25N 31°42' E 121°09'0 0.0
2018-May-12 03:46N 31°42' E 121°09'0 0.0
2018-May-12 03:19N 31°42' E 121°09'0 0.0
2018-May-12 02:49N 31°42' E 121°09'0 0.0
2018-May-12 01:01N 31°42' E 121°09'0 0.0
2018-May-12 00:55N 31°42' E 121°09'0 0.0
2018-May-11 21:07N 31°42' E 121°09'0 0.0
2018-May-11 18:37N 31°42' E 121°09'0 0.0
2018-May-11 18:25N 31°42' E 121°09'0 0.0
2018-May-11 15:55N 31°42' E 121°09'0 0.0
2018-May-11 15:25N 31°42' E 121°09'0 0.0
2018-May-11 14:49N 31°42' E 121°09'0 0.0
2018-May-11 14:25N 31°42' E 121°09'0 0.0
2018-May-11 13:55N 31°42' E 121°09'0 0.0
2018-May-11 13:19N 31°42' E 121°09'0 0.0
2018-May-11 12:55N 31°42' E 121°09'0 0.0
2018-May-11 10:13N 31°42' E 121°09'0 0.0
2018-May-11 09:55N 31°42' E 121°09'0 0.0
2018-May-11 08:31N 31°42' E 121°09'0 0.0
2018-May-11 08:19N 31°42' E 121°09'0 0.0
2018-May-11 07:49N 31°42' E 121°09'0 0.0
2018-May-11 07:25N 31°42' E 121°09'0 0.0
2018-May-11 06:55N 31°42' E 121°09'0 0.0
2018-May-11 06:25N 31°42' E 121°09'0 0.0
2018-May-11 01:13N 31°42' E 121°09'0 0.0
2018-May-11 00:31N 31°42' E 121°09'0 0.0
2018-May-11 00:13N 31°42' E 121°09'0 0.0
2018-May-10 23:49N 31°42' E 121°09'0 0.0
2018-May-10 23:31N 31°42' E 121°09'0 0.0
2018-May-10 22:19N 31°42' E 121°09'0 0.0
2018-May-10 21:49N 31°42' E 121°09'0 0.0
2018-May-10 21:22N 31°42' E 121°09'0 0.0
2018-May-10 20:49N 31°42' E 121°09'0 0.0
2018-May-10 18:43N 31°42' E 121°09'0 0.0
2018-May-10 18:25N 31°42' E 121°09'0 0.0
2018-May-10 17:21N 31°42' E 121°09'0 0.0
2018-May-10 16:25N 31°42' E 121°09'0 0.0
2018-May-10 15:49N 31°42' E 121°09'0 0.0
2018-May-10 14:01N 31°42' E 121°09'0 0.0
2018-May-10 13:49N 31°42' E 121°09'0 0.0
2018-May-10 13:16N 31°42' E 121°09'0 0.0
2018-May-10 12:49N 31°42' E 121°09'0 0.0
2018-May-10 12:25N 31°42' E 121°09'  
Track history (hours):
 
Tides and Currents Weather Stations Pressure Air Temp Water Temp Dewpoint Dewpoint Depression Visibility Wind Speed Wind Dir Waves Ship Positions

Star Life

Last reported at 2018-May-20 11:49 UTC. Time now 2018-May-20 15:45 UTC.
Position N 35°22' E 139°51'.

Length 169 m; draft 5.7 m.

Type: Cargo ship. MMSI: 209257000.

Date/timePositionNaut miles runAvg speedWind from/ knotsBaromVisibWave heightAir tempDewpointWater temp
2018-May-20 11:49N 35°22' E 139°51'0 0.0
2018-May-20 11:25N 35°22' E 139°51'0 0.0
2018-May-20 07:31N 35°22' E 139°51'0 0.0
2018-May-20 07:25N 35°22' E 139°51'0 0.0
2018-May-20 06:55N 35°22' E 139°51'0 0.0
2018-May-20 04:37N 35°22' E 139°51'0 0.0
2018-May-20 04:07N 35°22' E 139°51'0 0.0
2018-May-20 03:31N 35°22' E 139°51'0 0.1
2018-May-20 03:25N 35°22' E 139°51'0 0.0
2018-May-20 02:49N 35°22' E 139°51'0 0.0
2018-May-20 02:25N 35°22' E 139°51'0 0.0
2018-May-19 23:58N 35°22' E 139°51'0 0.0
2018-May-19 19:58N 35°22' E 139°51'0 0.0
2018-May-19 06:44N 35°22' E 139°51'0 0.7
2018-May-19 06:26N 35°22' E 139°51'2 4.3
2018-May-19 06:00N 35°23' E 139°49'1 2.1
2018-May-19 05:25N 35°25' E 139°49'0 0.0
2018-May-19 04:55N 35°25' E 139°49'0 0.1
2018-May-19 04:25N 35°25' E 139°49'0 0.3
2018-May-19 04:00N 35°25' E 139°49'2 4.2
2018-May-19 03:30N 35°24' E 139°46'611.8
2018-May-19 03:00N 35°19' E 139°44'611.4
2018-May-19 02:30N 35°14' E 139°47'510.1
2018-May-19 02:00N 35°09' E 139°46'611.7
2018-May-19 01:30N 35°03' E 139°44'612.7
2018-May-19 01:00N 34°57' E 139°42'611.9
2018-May-19 00:30N 34°51' E 139°41'711.9
2018-May-18 23:57N 34°45' E 139°43'  
2018-May-15 21:47N 31°07' E 122°16'614.3
2018-May-15 21:23N 31°10' E 122°11'614.7
2018-May-15 20:59N 31°14' E 122°05'814.9
2018-May-15 20:28N 31°15' E 121°57'714.7
2018-May-15 19:58N 31°17' E 121°48'613.1
2018-May-15 19:28N 31°20' E 121°41'611.8
2018-May-15 18:59N 31°23' E 121°35'510.0
2018-May-15 18:30N 31°25' E 121°30'4 9.0
2018-May-15 18:00N 31°28' E 121°27'611.9
2018-May-15 17:30N 31°32' E 121°21'611.6
2018-May-15 17:00N 31°36' E 121°17'5 9.9
2018-May-15 16:30N 31°40' E 121°12'4 6.7
2018-May-15 15:58N 31°42' E 121°09'0 0.0
2018-May-15 15:25N 31°42' E 121°09'0 0.0
2018-May-15 14:55N 31°42' E 121°09'0 0.0
2018-May-15 13:19N 31°42' E 121°09'0 0.0
2018-May-15 11:52N 31°42' E 121°09'0 0.0
2018-May-15 08:55N 31°42' E 121°09'0 0.0
2018-May-15 08:25N 31°42' E 121°09'0 0.0
2018-May-15 07:25N 31°42' E 121°09'0 0.0
2018-May-15 05:55N 31°42' E 121°09'0 0.0
2018-May-15 05:25N 31°42' E 121°09'0 0.0
2018-May-15 04:07N 31°42' E 121°09'0 0.0
2018-May-15 04:01N 31°42' E 121°09'0 0.0
2018-May-15 03:31N 31°42' E 121°09'0 0.0
2018-May-15 02:37N 31°42' E 121°09'0 0.0
2018-May-15 02:22N 31°42' E 121°09'0 0.0
2018-May-15 01:37N 31°42' E 121°09'0 0.0
2018-May-15 01:25N 31°42' E 121°09'0 0.0
2018-May-15 00:49N 31°42' E 121°09'0 0.0
2018-May-15 00:28N 31°42' E 121°09'0 0.0
2018-May-14 23:55N 31°42' E 121°09'0 0.0
2018-May-14 23:07N 31°42' E 121°09'0 0.0
2018-May-14 22:37N 31°42' E 121°09'0 0.0
2018-May-14 22:19N 31°42' E 121°09'0 0.0
2018-May-14 21:55N 31°42' E 121°09'0 0.0
2018-May-14 21:25N 31°42' E 121°09'0 0.0
2018-May-14 19:49N 31°42' E 121°09'0 0.0
2018-May-14 19:19N 31°42' E 121°09'0 0.0
2018-May-14 18:55N 31°42' E 121°09'0 0.0
2018-May-14 18:31N 31°42' E 121°09'0 0.0
2018-May-14 17:43N 31°42' E 121°09'0 0.0
2018-May-14 17:28N 31°42' E 121°09'0 0.0
2018-May-14 17:01N 31°42' E 121°09'0 0.0
2018-May-14 16:25N 31°42' E 121°09'0 0.0
2018-May-14 14:37N 31°42' E 121°09'0 0.0
2018-May-14 14:13N 31°42' E 121°09'0 0.0
2018-May-14 13:49N 31°42' E 121°09'0 0.0
2018-May-14 13:13N 31°42' E 121°09'0 0.0
2018-May-14 12:43N 31°42' E 121°09'0 0.0
2018-May-14 11:49N 31°42' E 121°09'0 0.0
2018-May-14 10:43N 31°42' E 121°09'0 0.0
2018-May-14 10:07N 31°42' E 121°09'0 0.0
2018-May-14 09:49N 31°42' E 121°09'0 0.0
2018-May-14 09:13N 31°42' E 121°09'0 0.0
2018-May-14 08:49N 31°42' E 121°09'0 0.0
2018-May-14 08:25N 31°42' E 121°09'0 0.0
2018-May-14 07:55N 31°42' E 121°09'0 0.0
2018-May-14 07:25N 31°42' E 121°09'0 0.0
2018-May-14 06:49N 31°42' E 121°09'0 0.0
2018-May-14 06:25N 31°42' E 121°09'0 0.0
2018-May-14 05:13N 31°42' E 121°09'0 0.0
2018-May-14 05:01N 31°42' E 121°09'0 0.0
2018-May-14 03:25N 31°42' E 121°09'0 0.0
2018-May-14 01:49N 31°42' E 121°09'0 0.0
2018-May-14 01:19N 31°42' E 121°09'0 0.0
2018-May-13 22:55N 31°42' E 121°09'0 0.0
2018-May-13 21:43N 31°42' E 121°09'0 0.0
2018-May-13 21:25N 31°42' E 121°09'0 0.0
2018-May-13 20:43N 31°42' E 121°09'0 0.0
2018-May-13 15:19N 31°42' E 121°09'0 0.0
2018-May-13 15:01N 31°42' E 121°09'0 0.0
2018-May-13 14:31N 31°42' E 121°09'0 0.0
2018-May-13 09:01N 31°42' E 121°09'0 0.0
2018-May-13 06:37N 31°42' E 121°09'0 0.0
2018-May-13 06:19N 31°42' E 121°09'0 0.0
2018-May-13 05:31N 31°42' E 121°09'0 0.0
2018-May-13 04:31N 31°42' E 121°09'0 0.0
2018-May-13 04:25N 31°42' E 121°09'0 0.0
2018-May-13 03:49N 31°42' E 121°09'0 0.0
2018-May-13 03:13N 31°42' E 121°09'0 0.0
2018-May-13 02:49N 31°42' E 121°09'0 0.0
2018-May-13 02:25N 31°42' E 121°09'0 0.0
2018-May-13 00:43N 31°42' E 121°09'0 0.0
2018-May-13 00:19N 31°42' E 121°09'0 0.0
2018-May-12 21:49N 31°42' E 121°09'0 0.0
2018-May-12 20:13N 31°42' E 121°09'0 0.0
2018-May-12 19:55N 31°42' E 121°09'0 0.0
2018-May-12 19:01N 31°42' E 121°09'0 0.0
2018-May-12 18:49N 31°42' E 121°09'0 0.0
2018-May-12 18:31N 31°42' E 121°09'0 0.0
2018-May-12 17:46N 31°42' E 121°09'0 0.0
2018-May-12 17:22N 31°42' E 121°09'0 0.0
2018-May-12 16:01N 31°42' E 121°09'0 0.0
2018-May-12 15:40N 31°42' E 121°09'0 0.0
2018-May-12 15:25N 31°42' E 121°09'0 0.0
2018-May-12 14:55N 31°42' E 121°09'0 0.0
2018-May-12 14:25N 31°42' E 121°09'0 0.0
2018-May-12 13:01N 31°42' E 121°09'0 0.0
2018-May-12 11:43N 31°42' E 121°09'0 0.1
2018-May-12 11:25N 31°42' E 121°09'0 0.0
2018-May-12 10:01N 31°42' E 121°09'0 0.0
2018-May-12 09:49N 31°42' E 121°09'0 0.0
2018-May-12 09:31N 31°42' E 121°09'0 0.0
2018-May-12 07:07N 31°42' E 121°09'0 0.0
2018-May-12 05:55N 31°42' E 121°09'0 0.0
2018-May-12 05:13N 31°42' E 121°09'0 0.0
2018-May-12 04:49N 31°42' E 121°09'0 0.0
2018-May-12 04:25N 31°42' E 121°09'0 0.0
2018-May-12 03:46N 31°42' E 121°09'0 0.0
2018-May-12 03:19N 31°42' E 121°09'0 0.0
2018-May-12 02:49N 31°42' E 121°09'0 0.0
2018-May-12 01:01N 31°42' E 121°09'0 0.0
2018-May-12 00:55N 31°42' E 121°09'0 0.0
2018-May-11 21:07N 31°42' E 121°09'0 0.0
2018-May-11 18:37N 31°42' E 121°09'0 0.0
2018-May-11 18:25N 31°42' E 121°09'0 0.0
2018-May-11 15:55N 31°42' E 121°09'0 0.0
2018-May-11 15:25N 31°42' E 121°09'0 0.0
2018-May-11 14:49N 31°42' E 121°09'0 0.0
2018-May-11 14:25N 31°42' E 121°09'0 0.0
2018-May-11 13:55N 31°42' E 121°09'0 0.0
2018-May-11 13:19N 31°42' E 121°09'0 0.0
2018-May-11 12:55N 31°42' E 121°09'0 0.0
2018-May-11 10:13N 31°42' E 121°09'0 0.0
2018-May-11 09:55N 31°42' E 121°09'0 0.0
2018-May-11 08:31N 31°42' E 121°09'0 0.0
2018-May-11 08:19N 31°42' E 121°09'0 0.0
2018-May-11 07:49N 31°42' E 121°09'0 0.0
2018-May-11 07:25N 31°42' E 121°09'0 0.0
2018-May-11 06:55N 31°42' E 121°09'0 0.0
2018-May-11 06:25N 31°42' E 121°09'0 0.0
2018-May-11 01:13N 31°42' E 121°09'0 0.0
2018-May-11 00:31N 31°42' E 121°09'0 0.0
2018-May-11 00:13N 31°42' E 121°09'0 0.0
2018-May-10 23:49N 31°42' E 121°09'0 0.0
2018-May-10 23:31N 31°42' E 121°09'0 0.0
2018-May-10 22:19N 31°42' E 121°09'0 0.0
2018-May-10 21:49N 31°42' E 121°09'0 0.0
2018-May-10 21:22N 31°42' E 121°09'0 0.0
2018-May-10 20:49N 31°42' E 121°09'0 0.0
2018-May-10 18:43N 31°42' E 121°09'0 0.0
2018-May-10 18:25N 31°42' E 121°09'0 0.0
2018-May-10 17:21N 31°42' E 121°09'0 0.0
2018-May-10 16:25N 31°42' E 121°09'0 0.0
2018-May-10 15:49N 31°42' E 121°09'0 0.0
2018-May-10 14:01N 31°42' E 121°09'0 0.0
2018-May-10 13:49N 31°42' E 121°09'0 0.0
2018-May-10 13:16N 31°42' E 121°09'0 0.0
2018-May-10 12:49N 31°42' E 121°09'0 0.0
2018-May-10 12:25N 31°42' E 121°09'  

Dump ship's entire track history